CheckWX is a tool to help pilots better visualize weather data.  It is not intended as a substitute for an official pre-flight weather briefing.

09:55:18 UTC

KETB METAR
West Bend Municipal Airport
West Bend, Wisconsin, USA
Current

20 mins ago

KETB 260935Z AUTO 29007KT 10SM SCT010 SCT015 08/08 A2970 RMK AO2
Observed
Apr-26 @ 09:35 UTC
Wind
  • 290° at 7 KTS
Visibility
10 SM
Flight Rules
VFR
Cloud Levels
  • Scattered at 1,000' AGL
  • Scattered at 1,500' AGL
Temperature
C / 46°F
Dewpoint
C / 46°F
Humidity
100%
Altimeter
29.7" Hg
Pressure
1005.72 hPa
Previous

40 mins ago

KETB 260915Z AUTO 00000KT 10SM CLR 08/08 A2969 RMK AO2
Observed
Apr-26 @ 09:15 UTC
Visibility
10 SM
Flight Rules
VFR
Cloud Levels
  • Clear skies
Temperature
C / 46°F
Dewpoint
C / 46°F
Humidity
100%
Altimeter
29.69" Hg
Pressure
1005.42 hPa
Previous

60 mins ago

KETB 260855Z AUTO 00000KT 10SM SCT005 08/08 A2969 RMK AO2
Observed
Apr-26 @ 08:55 UTC
Visibility
10 SM
Flight Rules
VFR
Cloud Levels
  • Scattered at 500' AGL
Temperature
C / 46°F
Dewpoint
C / 46°F
Humidity
100%
Altimeter
29.69" Hg
Pressure
1005.42 hPa